Time;durP1;ratioP1;P1;durP2;ratioP2;P2;SDS_P1;SDS_P2;PMS_P1;PMS_P2;Temp;Humidity;BMP_temperature;BMP_pressure;BME280_temperature;BME280_humidity;BME280_pressure;Samples;Min_cycle;Max_cycle;Signal;HPM_P1;HPM_P2
2020/12/15 00:00:02;;;;;;;38.50;23.30;;;;;;;3.42;73.84;101047.45;1724579;82;21563;-42
2020/12/15 00:02:31;;;;;;;31.60;20.70;;;;;;;3.44;73.78;101049.63;1719825;82;21583;-42
2020/12/15 00:04:59;;;;;;;30.82;21.02;;;;;;;3.43;73.78;101054.03;1716158;82;21165;-44
2020/12/15 00:07:26;;;;;;;34.98;22.48;;;;;;;3.44;73.77;101054.89;1725459;81;21155;-44
2020/12/15 00:09:54;;;;;;;33.05;20.27;;;;;;;3.44;73.75;101061.48;1729236;81;21811;-45
2020/12/15 00:12:22;;;;;;;31.00;20.25;;;;;;;3.44;73.73;101063.67;1751041;80;21140;-43
2020/12/15 00:14:49;;;;;;;33.48;22.45;;;;;;;3.46;73.65;101064.52;1753019;80;21134;-45
2020/12/15 00:17:17;;;;;;;31.40;22.60;;;;;;;3.48;73.53;101060.54;1757434;80;21126;-44
2020/12/15 00:19:44;;;;;;;31.62;22.13;;;;;;;3.47;73.45;101060.96;1751994;80;21164;-42
2020/12/15 00:22:12;;;;;;;30.17;19.45;;;;;;;3.47;73.39;101060.10;1753370;80;21129;-44
2020/12/15 00:24:39;;;;;;;29.05;20.30;;;;;;;3.44;73.34;101068.08;1756202;80;21582;-44
2020/12/15 00:27:08;;;;;;;27.50;18.73;;;;;;;3.38;73.48;101068.22;1757911;80;21137;-41
2020/12/15 00:29:36;;;;;;;28.65;18.67;;;;;;;3.36;73.47;101077.91;1728813;80;21126;-43
2020/12/15 00:32:04;;;;;;;31.40;20.97;;;;;;;3.33;73.53;101077.53;1753050;80;22165;-43
2020/12/15 00:34:31;;;;;;;29.63;19.98;;;;;;;3.30;73.55;101076.70;1754216;81;21150;-41
2020/12/15 00:37:00;;;;;;;26.60;18.32;;;;;;;3.27;73.67;101074.98;1750116;80;21550;-44
2020/12/15 00:39:28;;;;;;;25.62;19.10;;;;;;;3.28;73.69;101076.75;1753159;80;21137;-43
2020/12/15 00:41:56;;;;;;;26.25;18.50;;;;;;;3.29;73.72;101073.66;1758295;80;21138;-44
2020/12/15 00:44:24;;;;;;;25.85;18.50;;;;;;;3.33;73.70;101079.30;1755024;80;21553;-42
2020/12/15 00:46:52;;;;;;;23.32;17.42;;;;;;;3.35;73.69;101078.38;1756623;80;21148;-41
2020/12/15 00:49:19;;;;;;;31.48;19.30;;;;;;;3.37;73.65;101081.82;1759862;80;21656;-44
2020/12/15 00:51:48;;;;;;;29.63;20.75;;;;;;;3.38;73.68;101077.44;1752698;80;21585;-44
2020/12/15 00:54:16;;;;;;;30.35;19.27;;;;;;;3.39;73.66;101076.53;1755497;80;21142;-44
2020/12/15 00:56:44;;;;;;;27.20;20.05;;;;;;;3.41;73.61;101084.83;1723257;81;21145;-43
2020/12/15 00:59:13;;;;;;;30.35;19.40;;;;;;;3.43;73.54;101082.17;1748821;80;21161;-44
2020/12/15 01:01:41;;;;;;;29.27;20.65;;;;;;;3.44;73.51;101079.49;1752356;80;21517;-44
2020/12/15 01:04:10;;;;;;;26.35;18.80;;;;;;;3.45;73.45;101077.72;1689901;84;21121;-43
2020/12/15 01:06:37;;;;;;;29.37;20.25;;;;;;;3.47;73.41;101086.02;1693431;84;21160;-40
2020/12/15 01:09:07;;;;;;;26.45;18.77;;;;;;;3.47;73.34;101088.66;1674743;84;21158;-44
2020/12/15 01:11:34;;;;;;;28.73;21.27;;;;;;;3.48;73.33;101089.55;1666891;83;21200;-41
2020/12/15 01:14:04;;;;;;;33.30;21.30;;;;;;;3.46;73.36;101087.39;1689079;83;21289;-44
2020/12/15 01:16:33;;;;;;;32.93;23.87;;;;;;;3.44;73.36;101083.91;1685136;83;21186;-45
2020/12/15 01:19:01;;;;;;;31.77;21.60;;;;;;;3.45;73.37;101081.25;1690238;84;21155;-44
2020/12/15 01:21:31;;;;;;;30.48;22.58;;;;;;;3.47;73.37;101079.42;1750469;80;21477;-44
2020/12/15 01:24:00;;;;;;;29.67;20.10;;;;;;;3.50;73.32;101081.59;1738850;80;21159;-44
2020/12/15 01:26:29;;;;;;;27.67;18.95;;;;;;;3.51;73.26;101082.03;1706990;82;21605;-44
2020/12/15 01:28:57;;;;;;;27.87;18.40;;;;;;;3.53;73.25;101080.20;1743517;81;21127;-44
2020/12/15 01:31:25;;;;;;;26.48;19.30;;;;;;;3.54;73.19;101081.95;1742383;80;21130;-41
2020/12/15 01:34:01;;;;;;;27.50;19.45;;;;;;;3.54;73.11;101075.36;1741030;81;21146;-44
2020/12/15 01:36:47;;;;;;;30.12;21.70;;;;;;;3.52;73.09;101066.61;1742356;80;21898;-41
2020/12/15 01:39:17;;;;;;;35.45;23.70;;;;;;;3.48;73.05;101068.45;1738778;81;21563;-45
2020/12/15 01:42:13;;;;;;;38.08;24.02;;;;;;;3.47;73.18;101060.10;1787233;78;23077;-41
2020/12/15 01:44:43;;;;;;;34.05;22.85;;;;;;;3.45;73.19;101063.21;1758971;80;21546;-44
2020/12/15 01:47:14;;;;;;;35.40;22.58;;;;;;;3.44;73.16;101064.98;1768341;80;21172;-43
2020/12/15 01:49:42;;;;;;;32.93;21.42;;;;;;;3.45;73.19;101063.21;1779100;80;21157;-41
2020/12/15 01:52:13;;;;;;;30.97;19.45;;;;;;;3.46;73.12;101067.16;1742171;80;21584;-42
2020/12/15 01:54:45;;;;;;;29.63;19.65;;;;;;;3.46;73.08;101069.79;1768585;80;21177;-43
2020/12/15 01:57:14;;;;;;;27.48;20.00;;;;;;;3.45;73.06;101075.97;1788375;79;21129;-44
2020/12/15 01:59:46;;;;;;;28.55;21.15;;;;;;;3.42;73.01;101074.69;1774451;79;21153;-40
2020/12/15 02:02:19;;;;;;;27.58;18.82;;;;;;;3.36;73.06;101073.50;1772864;80;21166;-43
2020/12/15 02:04:51;;;;;;;27.95;20.20;;;;;;;3.32;73.19;101078.86;1780386;79;21145;-40
2020/12/15 02:07:20;;;;;;;29.18;19.98;;;;;;;3.27;73.31;101078.08;1764864;80;21155;-42
2020/12/15 02:09:48;;;;;;;24.82;18.02;;;;;;;3.25;73.40;101078.09;1755898;80;21585;-42
2020/12/15 02:12:42;;;;;;;27.40;18.60;;;;;;;3.29;73.49;101071.88;1802252;77;23018;-41
2020/12/15 02:15:11;;;;;;;26.85;18.95;;;;;;;3.26;73.49;101073.27;1785200;78;21149;-45
2020/12/15 02:18:07;;;;;;;25.10;17.62;;;;;;;3.25;73.54;101073.72;1793084;78;23403;-42
2020/12/15 02:20:38;;;;;;;25.72;16.90;;;;;;;3.17;73.65;101071.65;1768081;80;21141;-44
2020/12/15 02:23:08;;;;;;;24.00;17.35;;;;;;;3.15;73.69;101072.16;1713831;81;21603;-40
2020/12/15 02:25:38;;;;;;;27.40;18.32;;;;;;;3.13;73.80;101069.12;1728894;81;21120;-41
2020/12/15 02:28:07;;;;;;;26.00;18.40;;;;;;;3.11;73.86;101065.19;1711704;81;21188;-43
2020/12/15 02:30:35;;;;;;;23.38;17.35;;;;;;;3.11;73.88;101068.28;1714803;83;21183;-43
2020/12/15 02:33:04;;;;;;;26.00;18.10;;;;;;;3.06;73.96;101064.41;1708769;83;21229;-43
2020/12/15 02:35:34;;;;;;;24.55;16.32;;;;;;;3.07;74.00;101063.50;1709299;81;21509;-42
2020/12/15 02:38:01;;;;;;;26.77;17.17;;;;;;;3.07;74.01;101065.27;1743635;81;21160;-44
2020/12/15 02:40:29;;;;;;;24.37;16.27;;;;;;;3.10;74.02;101061.25;1736428;81;21487;-40
2020/12/15 02:43:02;;;;;;;23.80;17.30;;;;;;;3.10;74.04;101060.83;1703058;83;21161;-41
2020/12/15 02:45:29;;;;;;;24.25;18.02;;;;;;;3.11;74.06;101054.64;1732439;81;21163;-43
2020/12/15 02:47:58;;;;;;;25.70;18.25;;;;;;;3.15;74.12;101063.35;1722951;81;21171;-42
2020/12/15 02:50:27;;;;;;;24.23;16.82;;;;;;;3.18;74.08;101060.69;1706582;83;21139;-40
2020/12/15 02:52:59;;;;;;;28.85;18.37;;;;;;;3.22;74.01;101063.20;1716009;81;21154;-42
2020/12/15 02:55:29;;;;;;;24.95;16.07;;;;;;;3.26;73.89;101067.98;1717993;81;21193;-40
2020/12/15 02:57:56;;;;;;;33.05;19.90;;;;;;;3.31;73.78;101076.68;1714813;81;21174;-41
2020/12/15 03:00:24;;;;;;;28.38;18.20;;;;;;;3.33;73.67;101073.57;1709784;82;21164;-43
2020/12/15 03:02:53;;;;;;;28.02;19.67;;;;;;;3.33;73.59;101072.25;1729282;81;21160;-44
2020/12/15 03:05:23;;;;;;;25.80;17.37;;;;;;;3.33;73.55;101072.71;1742413;81;21632;-45
2020/12/15 03:07:51;;;;;;;28.50;18.82;;;;;;;3.34;73.47;101073.98;1711421;81;21189;-39
2020/12/15 03:10:20;;;;;;;25.92;18.17;;;;;;;3.34;73.41;101068.70;1688481;82;21716;-39
2020/12/15 03:12:48;;;;;;;28.95;19.20;;;;;;;3.35;73.42;101067.83;1717928;82;21209;-40
2020/12/15 03:15:17;;;;;;;28.00;18.92;;;;;;;3.35;73.31;101070.46;1710704;82;21161;-42
2020/12/15 03:17:45;;;;;;;25.68;17.92;;;;;;;3.36;73.28;101068.23;1681341;82;21166;-43
2020/12/15 03:20:12;;;;;;;22.93;16.62;;;;;;;3.38;73.25;101068.22;1713915;82;21181;-42
2020/12/15 03:22:42;;;;;;;24.63;18.12;;;;;;;3.40;73.23;101061.12;1717593;82;21632;-40
2020/12/15 03:25:10;;;;;;;26.70;16.42;;;;;;;3.40;73.18;101060.69;1719598;82;21144;-41
2020/12/15 03:27:47;;;;;;;36.93;28.12;;;;;;;3.42;73.14;101059.33;1786707;77;28542;-42
2020/12/15 03:30:17;;;;;;;27.52;19.60;;;;;;;3.37;73.12;101063.36;1780251;78;21588;-42
2020/12/15 03:32:45;;;;;;;25.25;18.42;;;;;;;3.40;73.11;101071.23;1742824;80;21151;-42
2020/12/15 03:35:13;;;;;;;28.73;19.87;;;;;;;3.37;73.13;101075.23;1700727;82;21168;-45
2020/12/15 03:37:42;;;;;;;31.20;17.80;;;;;;;3.35;73.22;101080.11;1722718;81;21501;-42
2020/12/15 03:40:11;;;;;;;27.45;19.15;;;;;;;3.35;73.20;101086.28;1722420;81;21153;-41
2020/12/15 03:42:57;;;;;;;26.70;17.87;;;;;;;3.32;73.20;101088.95;1721393;81;21159;-41
2020/12/15 03:45:29;;;;;;;26.23;18.60;;;;;;;3.28;73.29;101092.56;1721069;81;21123;-39
2020/12/15 03:47:57;;;;;;;26.95;17.02;;;;;;;3.27;73.34;101087.31;1716432;82;21564;-41
2020/12/15 03:50:26;;;;;;;26.62;17.98;;;;;;;3.25;73.41;101097.45;1691959;83;21096;-41
2020/12/15 03:52:53;;;;;;;29.50;17.95;;;;;;;3.24;73.39;101096.14;1719037;81;21136;-39
2020/12/15 03:55:23;;;;;;;26.05;17.95;;;;;;;3.20;73.49;101097.09;1720408;81;21126;-40
2020/12/15 03:57:52;;;;;;;28.42;18.75;;;;;;;3.20;73.57;101104.57;1713286;82;21127;-42
2020/12/15 04:00:30;;;;;;;23.57;16.27;;;;;;;3.22;73.64;101103.20;1714635;82;21143;-40
2020/12/15 04:03:26;;;;;;;25.55;17.82;;;;;;;3.29;73.65;101104.83;1786343;78;22935;-43
2020/12/15 04:05:58;;;;;;;22.98;16.02;;;;;;;3.28;73.58;101113.66;1767783;80;21105;-39
2020/12/15 04:08:27;;;;;;;27.25;17.20;;;;;;;3.29;73.56;101115.84;1734680;81;21496;-40
2020/12/15 04:10:56;;;;;;;25.05;16.95;;;;;;;3.25;73.54;101121.59;1712192;81;22033;-40
2020/12/15 04:13:25;;;;;;;22.80;15.72;;;;;;;3.19;73.62;101119.08;1699333;83;21196;-40
2020/12/15 04:15:53;;;;;;;26.48;16.35;;;;;;;3.17;73.73;101122.19;1704405;82;21207;-41
2020/12/15 04:18:22;;;;;;;24.43;16.45;;;;;;;3.19;73.69;101126.99;1698135;83;21151;-40
2020/12/15 04:20:51;;;;;;;23.45;16.80;;;;;;;3.13;73.73;101132.38;1707835;83;21315;-41
2020/12/15 04:23:19;;;;;;;26.07;18.35;;;;;;;3.07;73.84;101133.79;1706441;82;21781;-42
2020/12/15 04:25:55;;;;;;;23.98;16.95;;;;;;;3.03;73.97;101139.58;1701895;82;21230;-41
2020/12/15 04:28:25;;;;;;;28.65;17.20;;;;;;;2.97;74.11;101137.92;1709956;82;21606;-41
2020/12/15 04:30:52;;;;;;;23.42;16.37;;;;;;;2.92;74.25;101142.36;1703937;83;21197;-42
2020/12/15 04:33:21;;;;;;;28.32;18.57;;;;;;;2.89;74.39;101137.16;1682932;82;21454;-42
2020/12/15 04:35:50;;;;;;;25.90;16.73;;;;;;;2.90;74.45;101141.97;1700859;82;21149;-43
2020/12/15 04:38:18;;;;;;;21.57;15.45;;;;;;;2.87;74.61;101145.98;1700976;82;21656;-42
2020/12/15 04:40:46;;;;;;;24.05;16.12;;;;;;;2.94;74.73;101147.62;1713448;83;21733;-49
2020/12/15 04:43:16;;;;;;;22.00;15.83;;;;;;;3.01;74.74;101142.22;1691816;83;21692;-40
2020/12/15 04:45:45;;;;;;;26.80;18.02;;;;;;;3.09;74.64;101150.00;1703154;82;21482;-39
2020/12/15 04:48:21;;;;;;;23.02;16.48;;;;;;;3.15;74.53;101143.74;1707506;82;21580;-40
2020/12/15 04:51:10;;;;;;;29.30;22.85;;;;;;;3.24;74.40;101148.41;1786483;78;28161;-41
2020/12/15 04:53:39;;;;;;;21.23;15.40;;;;;;;3.23;74.33;101149.32;1773364;80;21588;-40
2020/12/15 04:56:33;;;;;;;21.95;15.85;;;;;;;3.41;74.14;101140.20;1800214;77;23468;-40
2020/12/15 04:59:05;;;;;;;;;;;;;;;3.40;73.98;101152.09;1776186;78;21276;-40
2020/12/15 05:01:35;;;;;;;19.50;15.10;;;;;;;3.40;73.91;101152.98;1771043;78;20166;-43
2020/12/15 05:04:04;;;;;;;21.15;16.02;;;;;;;3.40;73.77;101158.26;1769874;78;21149;-40
2020/12/15 05:06:33;;;;;;;22.90;15.85;;;;;;;3.40;73.74;101156.05;1770918;78;21134;-41
2020/12/15 05:09:01;;;;;;;22.85;15.63;;;;;;;3.41;73.68;101153.84;1742436;80;21137;-42
2020/12/15 05:11:30;;;;;;;22.60;16.30;;;;;;;3.43;73.61;101159.52;1655325;83;21166;-41
2020/12/15 05:14:00;;;;;;;25.35;16.40;;;;;;;3.46;73.56;101161.22;1696061;83;21145;-40
2020/12/15 05:16:37;;;;;;;24.98;17.65;;;;;;;3.51;73.48;101169.05;1709197;82;21499;-48
2020/12/15 05:19:20;;;;;;;29.10;18.45;;;;;;;3.53;73.32;101164.17;1718339;81;21149;-41
2020/12/15 05:21:59;;;;;;;23.40;17.15;;;;;;;3.54;73.25;101168.99;1683665;82;21150;-41
2020/12/15 05:24:29;;;;;;;26.62;20.48;;;;;;;3.56;73.15;101171.16;1702968;82;21135;-45
2020/12/15 05:26:59;;;;;;;31.48;20.75;;;;;;;3.55;73.17;101173.36;1720650;81;21138;-43
2020/12/15 05:29:27;;;;;;;29.63;22.52;;;;;;;3.52;73.22;101175.60;1718639;81;21163;-46
2020/12/15 05:32:12;;;;;;;29.12;19.87;;;;;;;3.52;73.22;101176.92;1709188;81;21135;-47
2020/12/15 05:35:08;;;;;;;27.55;20.57;;;;;;;3.57;73.22;101180.34;1801826;77;23106;-46
2020/12/15 05:37:57;;;;;;;25.40;17.77;;;;;;;3.53;73.21;101185.27;1768726;79;21580;-45
2020/12/15 05:41:05;;;;;;;26.52;18.30;;;;;;;3.59;73.11;101182.51;1791975;78;23385;-43
2020/12/15 05:43:40;;;;;;;30.48;19.73;;;;;;;3.60;73.05;101191.28;1735572;80;21144;-43
2020/12/15 05:46:09;;;;;;;26.68;20.27;;;;;;;3.61;73.01;101190.41;1771396;79;21168;-48
2020/12/15 05:48:37;;;;;;;26.87;19.40;;;;;;;3.60;72.96;101193.50;1775793;79;21145;-40
2020/12/15 05:51:05;;;;;;;29.82;21.37;;;;;;;3.59;72.87;101198.80;1771381;79;21149;-39
2020/12/15 05:53:32;;;;;;;27.22;21.10;;;;;;;3.56;72.87;101199.72;1721066;81;21549;-41
2020/12/15 05:56:00;;;;;;;29.87;19.87;;;;;;;3.54;72.87;101201.50;1722928;81;21144;-45
2020/12/15 05:58:27;;;;;;;30.72;20.00;;;;;;;3.50;72.81;101202.45;1727544;81;21184;-41
2020/12/15 06:00:55;;;;;;;29.18;20.72;;;;;;;3.49;72.77;101202.04;1701447;81;21140;-45
2020/12/15 06:03:23;;;;;;;29.67;20.95;;;;;;;3.46;72.78;101203.42;1682912;83;21159;-42
2020/12/15 06:05:50;;;;;;;25.30;18.12;;;;;;;3.45;72.82;101210.89;1711917;81;21346;-43
2020/12/15 06:08:18;;;;;;;29.63;20.12;;;;;;;3.43;72.85;101217.53;1718427;83;21158;-44
2020/12/15 06:10:47;;;;;;;24.52;17.65;;;;;;;3.43;72.89;101221.94;1660306;83;21580;-43
2020/12/15 06:13:15;;;;;;;25.25;18.45;;;;;;;3.41;72.91;101225.91;1737810;81;21193;-41
2020/12/15 06:15:42;;;;;;;27.77;19.30;;;;;;;3.41;72.93;101232.95;1708495;81;21187;-43
2020/12/15 06:18:11;;;;;;;25.75;18.52;;;;;;;3.39;73.07;101234.74;1700578;81;21925;-42
2020/12/15 06:20:39;;;;;;;25.95;18.07;;;;;;;3.39;73.12;101242.20;1708953;83;21165;-44
2020/12/15 06:23:10;;;;;;;26.52;18.87;;;;;;;3.41;73.18;101247.45;1694253;82;21180;-41
2020/12/15 06:25:38;;;;;;;23.85;16.77;;;;;;;3.42;73.16;101251.37;1705398;81;21844;-41
2020/12/15 06:28:09;;;;;;;22.02;16.75;;;;;;;3.44;73.15;101252.67;1706816;82;21185;-42
2020/12/15 06:30:39;;;;;;;25.68;17.85;;;;;;;3.46;73.16;101257.48;1701101;82;22018;-41
2020/12/15 06:33:08;;;;;;;26.23;19.57;;;;;;;3.47;73.11;101257.44;1705510;81;21216;-43
2020/12/15 06:35:36;;;;;;;29.77;20.35;;;;;;;3.46;73.06;101262.30;1714574;81;21741;-43
2020/12/15 06:38:05;;;;;;;31.07;20.02;;;;;;;3.39;73.06;101263.30;1719484;81;21177;-45
2020/12/15 06:40:42;;;;;;;27.10;21.25;;;;;;;3.34;73.27;101266.91;1716093;81;21133;-40
2020/12/15 06:43:09;;;;;;;26.50;19.25;;;;;;;3.31;73.35;101266.51;1721011;81;21192;-41
2020/12/15 06:45:37;;;;;;;23.42;18.55;;;;;;;3.27;73.41;101274.48;1732381;81;21158;-41
2020/12/15 06:48:06;;;;;;;23.10;18.10;;;;;;;3.20;73.60;101275.91;1730795;81;21169;-45
2020/12/15 06:50:44;;;;;;;23.90;17.05;;;;;;;3.14;73.80;101273.81;1701566;82;21185;-40
2020/12/15 06:53:15;;;;;;;22.02;16.12;;;;;;;3.14;73.93;101273.81;1724455;81;21153;-41
2020/12/15 06:55:45;;;;;;;20.97;14.93;;;;;;;3.16;74.04;101269.39;1722559;81;21656;-42
2020/12/15 06:58:20;;;;;;;20.27;14.18;;;;;;;3.19;74.09;101272.84;1725970;81;21149;-43
2020/12/15 07:00:48;;;;;;;22.70;16.02;;;;;;;3.23;74.11;101271.91;1711903;81;21168;-42
2020/12/15 07:03:17;;;;;;;22.62;15.08;;;;;;;3.30;74.11;101275.75;1708395;81;21454;-41
2020/12/15 07:05:45;;;;;;;21.45;16.80;;;;;;;3.32;74.12;101277.47;1694328;82;21874;-41
2020/12/15 07:08:12;;;;;;;21.65;15.58;;;;;;;3.35;74.13;101277.86;1683611;81;21319;-41
2020/12/15 07:10:42;;;;;;;27.52;20.05;;;;;;;3.38;74.11;101280.48;1698491;82;21181;-42
2020/12/15 07:13:13;;;;;;;34.70;21.27;;;;;;;3.42;74.07;101282.15;1697845;83;21142;-46
2020/12/15 07:15:40;;;;;;;29.05;20.08;;;;;;;3.44;74.14;101281.23;1703825;82;21160;-42
2020/12/15 07:18:08;;;;;;;27.77;19.80;;;;;;;3.47;74.06;101279.85;1701140;81;21546;-41
2020/12/15 07:20:35;;;;;;;25.00;18.15;;;;;;;3.50;74.02;101284.66;1714809;82;21202;-43
2020/12/15 07:23:03;;;;;;;25.45;18.05;;;;;;;3.51;74.01;101277.19;1712709;81;21597;-42
2020/12/15 07:25:31;;;;;;;25.30;18.73;;;;;;;3.52;74.04;101281.55;1699575;82;21487;-41
2020/12/15 07:27:59;;;;;;;25.20;18.73;;;;;;;3.52;74.07;101282.88;1702651;82;21181;-43
2020/12/15 07:30:26;;;;;;;24.92;18.65;;;;;;;3.49;74.18;101286.44;1705300;82;21204;-43
2020/12/15 07:32:54;;;;;;;25.70;18.67;;;;;;;3.48;74.17;101288.66;1725932;81;21161;-41
2020/12/15 07:35:23;;;;;;;23.38;17.17;;;;;;;3.48;74.17;101287.34;1695541;82;21162;-45
2020/12/15 07:37:59;;;;;;;;;;;;;;;3.48;74.17;101288.66;1707134;82;21157;-42
2020/12/15 07:40:28;;;;;;;20.27;15.20;;;;;;;3.48;74.26;101292.62;1697322;82;20152;-43
2020/12/15 07:42:59;;;;;;;17.77;13.47;;;;;;;3.47;74.24;101293.03;1709538;82;22053;-39
2020/12/15 07:45:30;;;;;;;17.73;14.35;;;;;;;3.44;74.31;101297.50;1711378;82;21180;-44
2020/12/15 07:47:58;;;;;;;16.25;13.18;;;;;;;3.39;74.41;101296.25;1716637;82;21164;-44
2020/12/15 07:50:28;;;;;;;16.73;13.32;;;;;;;3.38;74.50;101294.53;1710578;82;21695;-42
2020/12/15 07:53:01;;;;;;;;;;;;;;;3.38;74.61;101292.34;1711577;82;21209;-42
2020/12/15 07:55:28;;;;;;;17.05;12.93;;;;;;;3.41;74.69;101290.52;1708586;82;20465;-44
2020/12/15 07:57:57;;;;;;;17.57;13.20;;;;;;;3.43;74.82;101285.23;1734941;80;21165;-41
2020/12/15 08:00:24;;;;;;;18.00;12.93;;;;;;;3.47;74.84;101296.12;1722328;81;21718;-38
2020/12/15 08:02:56;;;;;;;18.32;13.72;;;;;;;3.51;74.84;101293.88;1733096;81;21817;-40
2020/12/15 08:05:24;;;;;;;22.07;16.62;;;;;;;3.54;74.88;101304.37;1678223;83;21990;-41
2020/12/15 08:07:56;;;;;;;25.50;17.67;;;;;;;3.56;74.92;101305.67;1724403;81;21167;-47
2020/12/15 08:10:29;;;;;;;25.17;18.35;;;;;;;3.56;74.92;101305.67;1714150;83;21162;-51
2020/12/15 08:13:00;;;;;;;19.75;15.32;;;;;;;3.57;74.87;101301.67;1708888;81;21207;-48
2020/12/15 08:15:28;;;;;;;20.05;15.15;;;;;;;3.57;74.84;101308.27;1731874;81;21189;-41
2020/12/15 08:17:58;;;;;;;18.82;14.75;;;;;;;3.59;74.86;101310.89;1712002;82;21196;-44
2020/12/15 08:20:30;;;;;;;17.55;12.30;;;;;;;3.62;74.83;101311.70;1714463;82;21582;-41
2020/12/15 08:23:13;;;;;;;16.67;13.88;;;;;;;3.63;74.80;101318.73;1718241;82;21149;-40
2020/12/15 08:25:45;;;;;;;23.57;16.15;;;;;;;3.67;74.74;101320.86;1708103;82;21187;-42
2020/12/15 08:28:24;;;;;;;22.90;17.55;;;;;;;3.69;74.66;101320.39;1695616;81;21198;-41
2020/12/15 08:30:54;;;;;;;20.90;16.12;;;;;;;3.68;74.62;101316.03;1677489;82;21161;-40
2020/12/15 08:33:29;;;;;;;16.80;13.62;;;;;;;3.67;74.54;101317.77;1702493;82;21192;-41
2020/12/15 08:35:58;;;;;;;19.27;14.87;;;;;;;3.64;74.60;101313.88;1707959;83;21201;-41
2020/12/15 08:38:27;;;;;;;18.40;14.50;;;;;;;3.65;74.65;101319.59;1708945;81;21177;-40
2020/12/15 08:41:02;;;;;;;19.65;14.68;;;;;;;3.64;74.72;101316.97;1719170;81;21165;-41
2020/12/15 08:43:30;;;;;;;21.50;16.27;;;;;;;3.66;74.80;101316.50;1696164;82;21613;-40
2020/12/15 08:45:59;;;;;;;20.30;16.27;;;;;;;3.68;74.75;101316.03;1699950;83;21180;-40
2020/12/15 08:48:27;;;;;;;19.05;15.58;;;;;;;3.65;74.70;101314.73;1739650;81;21707;-39
2020/12/15 08:50:55;;;;;;;18.50;13.75;;;;;;;3.61;74.86;101315.25;1742305;81;21113;-39
2020/12/15 08:53:22;;;;;;;19.75;13.80;;;;;;;3.60;74.90;101312.20;1716927;81;21629;-40
2020/12/15 08:55:50;;;;;;;18.48;14.07;;;;;;;3.63;74.98;101310.83;1741463;81;21683;-41
2020/12/15 08:58:18;;;;;;;18.15;13.32;;;;;;;3.67;74.96;101310.31;1722038;81;21180;-39
2020/12/15 09:00:46;;;;;;;18.02;13.10;;;;;;;3.69;74.89;101313.34;1711131;81;21592;-41
2020/12/15 09:03:16;;;;;;;18.77;14.75;;;;;;;3.71;74.92;101316.42;1695701;82;21169;-40
2020/12/15 09:05:55;;;;;;;23.70;14.90;;;;;;;3.72;74.93;101312.88;1728302;81;21156;-39
2020/12/15 09:08:25;;;;;;;17.95;14.45;;;;;;;3.72;74.93;101310.23;1706625;81;21173;-43
2020/12/15 09:10:54;;;;;;;22.17;15.48;;;;;;;3.69;74.84;101312.48;1723617;81;21326;-37
2020/12/15 09:13:22;;;;;;;21.70;15.00;;;;;;;3.63;74.93;101316.10;1729667;81;22010;-45
2020/12/15 09:15:56;;;;;;;18.40;14.83;;;;;;;3.60;75.05;101314.84;1700159;82;21685;-42
2020/12/15 09:18:36;;;;;;;18.80;13.45;;;;;;;3.58;75.18;101314.41;1713870;81;21167;-42
2020/12/15 09:21:10;;;;;;;18.07;14.13;;;;;;;3.59;75.30;101313.53;1721247;82;21210;-42
2020/12/15 09:23:38;;;;;;;21.80;17.05;;;;;;;3.62;75.34;101314.34;1735485;81;21624;-40
2020/12/15 09:26:05;;;;;;;22.73;15.83;;;;;;;3.64;75.35;101319.14;1705359;82;21201;-40
2020/12/15 09:28:32;;;;;;;20.85;16.02;;;;;;;3.64;75.38;101315.19;1706200;82;21178;-39
2020/12/15 09:31:09;;;;;;;22.55;17.17;;;;;;;3.67;75.35;101312.95;1697587;82;21157;-42
2020/12/15 09:34:23;;;;;;;20.72;15.05;;;;;;;3.72;75.33;101303.64;1796227;78;23157;-40
2020/12/15 09:36:57;;;;;;;21.85;16.27;;;;;;;3.71;75.31;101309.83;1776588;79;21121;-43
2020/12/15 09:39:30;;;;;;;26.12;18.25;;;;;;;3.73;75.34;101303.63;1773628;79;21351;-40
2020/12/15 09:42:03;;;;;;;26.23;18.67;;;;;;;3.75;75.28;101306.22;1771198;79;21436;-41
2020/12/15 09:44:31;;;;;;;23.73;16.97;;;;;;;3.76;75.30;101304.02;1769845;79;21160;-42
2020/12/15 09:46:58;;;;;;;21.00;16.65;;;;;;;3.77;75.32;101304.44;1770441;79;21936;-42
2020/12/15 09:49:26;;;;;;;27.07;18.90;;;;;;;3.77;75.37;101300.02;1772958;79;21580;-42
2020/12/15 09:51:53;;;;;;;22.60;17.32;;;;;;;3.80;75.27;101304.37;1773433;79;21152;-40
2020/12/15 09:54:21;;;;;;;20.77;15.93;;;;;;;3.79;75.31;101298.23;1774262;79;21160;-43
2020/12/15 09:56:48;;;;;;;23.85;17.55;;;;;;;3.80;75.19;101303.92;1722130;81;21673;-40
2020/12/15 09:59:15;;;;;;;25.10;19.23;;;;;;;3.80;75.16;101307.87;1741784;81;21169;-40
2020/12/15 10:01:43;;;;;;;24.47;19.92;;;;;;;3.79;75.26;101298.69;1716417;83;21165;-40
2020/12/15 10:04:11;;;;;;;26.52;20.02;;;;;;;3.79;75.27;101299.55;1711970;83;21184;-40
2020/12/15 10:06:40;;;;;;;22.73;17.73;;;;;;;3.80;75.36;101298.64;1712526;83;21600;-40
2020/12/15 10:09:07;;;;;;;25.15;17.20;;;;;;;3.80;75.35;101299.09;1727061;81;21154;-40
2020/12/15 10:11:36;;;;;;;24.65;16.95;;;;;;;3.80;75.36;101297.77;1729835;81;21303;-44
2020/12/15 10:14:03;;;;;;;24.15;16.90;;;;;;;3.80;75.36;101294.68;1727653;81;21161;-41
2020/12/15 10:16:31;;;;;;;26.27;18.80;;;;;;;3.82;75.36;101307.41;1721956;81;21117;-39
2020/12/15 10:19:00;;;;;;;25.90;18.70;;;;;;;3.77;75.35;101299.16;1737295;81;21170;-43
2020/12/15 10:21:28;;;;;;;26.68;20.20;;;;;;;3.71;75.45;101300.14;1741419;81;21121;-42
2020/12/15 10:23:55;;;;;;;28.65;20.20;;;;;;;3.71;75.56;101300.14;1704567;82;21549;-42
2020/12/15 10:26:24;;;;;;;29.32;20.62;;;;;;;3.73;75.62;101301.41;1738156;81;21561;-40
2020/12/15 10:28:54;;;;;;;24.60;19.17;;;;;;;3.75;75.55;101299.17;1737693;81;21126;-42
2020/12/15 10:31:22;;;;;;;27.80;19.20;;;;;;;3.74;75.60;101296.58;1706856;82;21157;-42
2020/12/15 10:33:50;;;;;;;29.18;19.85;;;;;;;3.74;75.61;101297.44;1715030;82;21173;-39
2020/12/15 10:36:18;;;;;;;26.73;18.90;;;;;;;3.76;75.65;101294.79;1755389;80;21130;-40
2020/12/15 10:38:46;;;;;;;26.23;19.95;;;;;;;3.77;75.70;101297.38;1714369;82;21138;-44
2020/12/15 10:41:13;;;;;;;37.55;30.27;;;;;;;3.76;75.71;101300.93;1754794;80;21146;-43
2020/12/15 10:43:41;;;;;;;26.65;19.73;;;;;;;3.74;75.79;101294.80;1758715;80;21126;-40
2020/12/15 10:46:10;;;;;;;30.30;20.85;;;;;;;3.74;75.84;101293.48;1756944;80;21283;-39
2020/12/15 10:48:39;;;;;;;25.85;18.15;;;;;;;3.74;75.77;101296.12;1758336;80;21306;-39
2020/12/15 10:51:07;;;;;;;30.90;20.90;;;;;;;3.73;75.87;101293.50;1756763;80;21692;-41
2020/12/15 10:53:34;;;;;;;30.17;21.97;;;;;;;3.75;75.96;101302.27;1759771;80;21138;-40
2020/12/15 10:56:03;;;;;;;28.70;20.95;;;;;;;3.75;75.90;101306.22;1689946;83;21162;-40
2020/12/15 10:58:30;;;;;;;26.95;18.92;;;;;;;3.78;75.91;101304.42;1712646;82;21122;-39
2020/12/15 11:00:58;;;;;;;29.20;22.15;;;;;;;3.81;75.82;101311.41;1758307;80;21681;-39
2020/12/15 11:03:49;;;;;;;26.55;19.17;;;;;;;3.79;75.65;101315.84;1757433;80;21169;-41
2020/12/15 11:06:28;;;;;;;29.87;19.82;;;;;;;3.75;75.69;101320.73;1697652;82;21603;-38
2020/12/15 11:08:57;;;;;;;32.38;22.45;;;;;;;3.74;75.73;101323.83;1700449;82;21175;-39
2020/12/15 11:11:25;;;;;;;32.03;21.93;;;;;;;3.71;75.82;101318.61;1701060;82;21959;-41
2020/12/15 11:13:52;;;;;;;27.07;20.52;;;;;;;3.68;75.83;101315.58;1696426;82;21161;-39
2020/12/15 11:16:23;;;;;;;29.40;20.48;;;;;;;3.67;75.91;101320.41;1698374;82;21123;-40
2020/12/15 11:18:51;;;;;;;28.65;20.00;;;;;;;3.65;76.00;101319.59;1699538;82;21169;-40
2020/12/15 11:21:18;;;;;;;28.05;19.73;;;;;;;3.65;76.00;101319.59;1698694;82;21212;-40
2020/12/15 11:23:45;;;;;;;29.95;20.55;;;;;;;3.65;75.90;101318.27;1695125;83;21211;-44
2020/12/15 11:26:16;;;;;;;30.35;19.70;;;;;;;3.64;75.94;101322.24;1693787;82;21577;-41
2020/12/15 11:28:44;;;;;;;32.10;22.95;;;;;;;3.60;75.86;101327.13;1695749;83;21273;-40
2020/12/15 11:31:12;;;;;;;32.73;19.73;;;;;;;3.56;75.98;101325.00;1696017;82;21148;-38